createdAt,value
2023-04-01T00:02:23.595Z,9.23
2023-04-01T00:04:53.052Z,8.18
2023-04-01T00:07:24.483Z,8.55
2023-04-01T00:10:00.774Z,8.38
2023-04-01T00:12:31.055Z,8.68
2023-04-01T00:15:00.764Z,8.27
2023-04-01T00:17:30.655Z,10.17
2023-04-01T00:20:00.256Z,9.75
2023-04-01T00:22:31.783Z,10.00
2023-04-01T00:25:01.268Z,9.85
2023-04-01T00:27:31.334Z,9.10
2023-04-01T00:30:00.717Z,8.70
2023-04-01T00:32:31.778Z,9.77
2023-04-01T00:35:01.653Z,7.95
2023-04-01T00:37:33.902Z,7.88
2023-04-01T00:40:03.321Z,7.72
2023-04-01T00:42:33.054Z,10.52
2023-04-01T00:45:27.847Z,7.38
2023-04-01T00:47:58.370Z,7.88
2023-04-01T00:50:29.621Z,7.50
2023-04-01T00:53:02.947Z,8.02
2023-04-01T00:55:34.765Z,8.00
2023-04-01T00:58:07.820Z,8.95
2023-04-01T01:00:38.075Z,8.40
2023-04-01T01:03:08.721Z,7.68
2023-04-01T01:05:59.381Z,10.05
2023-04-01T01:08:42.936Z,8.13
2023-04-01T01:11:14.236Z,9.27
2023-04-01T01:13:52.221Z,8.40
2023-04-01T01:16:28.496Z,8.82
2023-04-01T01:19:06.487Z,9.52
2023-04-01T01:21:58.647Z,9.48
2023-04-01T01:24:52.175Z,9.98
2023-04-01T01:27:23.357Z,9.25
2023-04-01T01:30:16.755Z,9.57
2023-04-01T01:33:08.018Z,9.63
2023-04-01T01:35:43.777Z,10.05
2023-04-01T01:38:17.870Z,10.75
2023-04-01T01:40:53.019Z,10.70
2023-04-01T01:43:25.951Z,11.05
2023-04-01T01:46:01.727Z,10.77
2023-04-01T01:48:34.260Z,11.13
2023-04-01T01:51:06.364Z,11.23
2023-04-01T01:53:35.883Z,11.52
2023-04-01T01:56:05.871Z,12.23
2023-04-01T01:58:42.000Z,11.65
2023-04-01T02:01:16.554Z,13.00
2023-04-01T02:03:48.097Z,13.13
2023-04-01T02:06:21.927Z,13.65
2023-04-01T02:08:54.951Z,13.60
2023-04-01T02:11:31.715Z,12.57
2023-04-01T02:14:07.926Z,12.68
2023-04-01T02:16:42.605Z,12.55
2023-04-01T02:19:13.714Z,12.40
2023-04-01T02:21:46.876Z,10.85
2023-04-01T02:24:18.315Z,10.75
2023-04-01T02:26:48.980Z,11.70
2023-04-01T02:29:20.687Z,10.67
2023-04-01T02:31:51.793Z,8.13
2023-04-01T02:34:22.095Z,6.70
2023-04-01T02:39:24.041Z,6.88
2023-04-01T02:41:54.107Z,6.37
2023-04-01T02:44:23.570Z,6.78
2023-04-01T02:46:54.082Z,6.43
2023-04-01T02:49:23.451Z,6.85
2023-04-01T02:51:54.685Z,6.40
2023-04-01T02:54:23.930Z,6.65
2023-04-01T02:56:53.762Z,6.03
2023-04-01T02:59:23.381Z,6.18
2023-04-01T03:01:53.235Z,5.63
2023-04-01T03:04:22.595Z,6.00
2023-04-01T03:06:53.932Z,4.20
2023-04-01T03:11:52.593Z,5.00
2023-04-01T03:14:22.167Z,4.57
2023-04-01T03:16:52.545Z,4.75
2023-04-01T03:19:21.961Z,5.35
2023-04-01T03:21:51.769Z,5.03
2023-04-01T03:24:23.069Z,4.90
2023-04-01T03:26:52.707Z,5.57
2023-04-01T03:29:22.224Z,5.05
2023-04-01T03:31:51.889Z,4.63
2023-04-01T03:34:21.193Z,4.82
2023-04-01T03:36:50.890Z,4.50
2023-04-01T03:39:22.128Z,4.88
2023-04-01T03:41:52.031Z,4.28
2023-04-01T03:44:21.725Z,4.78
2023-04-01T03:46:51.356Z,4.60
2023-04-01T03:49:20.762Z,5.18
2023-04-01T03:51:50.786Z,5.65
2023-04-01T03:54:22.509Z,5.70
2023-04-01T03:56:52.459Z,5.13
2023-04-01T03:59:21.857Z,5.00
2023-04-01T04:01:51.548Z,5.13
2023-04-01T04:04:20.827Z,4.65
2023-04-01T04:06:51.949Z,4.60
2023-04-01T04:09:23.103Z,4.03
2023-04-01T04:11:52.810Z,3.80
2023-04-01T04:14:22.196Z,4.53
2023-04-01T04:16:51.953Z,4.70
2023-04-01T04:19:21.427Z,5.10
2023-04-01T04:21:51.700Z,5.27
2023-04-01T04:24:22.811Z,5.25
2023-04-01T04:26:52.479Z,6.63
2023-04-01T04:29:22.072Z,6.18
2023-04-01T04:31:52.207Z,6.97
2023-04-01T04:34:22.872Z,7.03
2023-04-01T04:39:23.280Z,5.90
2023-04-01T04:41:53.082Z,7.18
2023-04-01T04:44:23.059Z,5.18
2023-04-01T04:46:53.005Z,5.15
2023-04-01T04:49:22.594Z,5.45
2023-04-01T04:51:53.627Z,5.05
2023-04-01T04:54:24.354Z,4.32
2023-04-01T04:56:54.746Z,5.35
2023-04-01T04:59:24.577Z,5.13
2023-04-01T05:01:54.759Z,5.22
2023-04-01T05:04:24.139Z,5.22
2023-04-01T05:06:54.129Z,5.55
2023-04-01T05:09:24.879Z,6.00
2023-04-01T05:11:54.782Z,7.25
2023-04-01T05:14:24.339Z,5.40
2023-04-01T05:16:55.654Z,5.72
2023-04-01T05:19:25.132Z,6.68
2023-04-01T05:21:55.885Z,6.25
2023-04-01T05:24:26.942Z,6.97
2023-04-01T05:26:57.455Z,7.18
2023-04-01T05:29:27.911Z,7.03
2023-04-01T05:31:58.067Z,5.97
2023-04-01T05:34:27.419Z,5.50
2023-04-01T05:36:57.184Z,5.78
2023-04-01T05:39:27.953Z,5.70
2023-04-01T05:41:57.834Z,5.40
2023-04-01T05:44:27.675Z,5.40
2023-04-01T05:46:57.327Z,12.45
2023-04-01T05:49:28.352Z,6.35
2023-04-01T05:51:59.491Z,7.95
2023-04-01T05:54:30.294Z,8.00
2023-04-01T05:57:00.229Z,7.43
2023-04-01T05:59:29.688Z,6.65
2023-04-01T06:02:00.175Z,5.43
2023-04-01T06:04:35.841Z,7.32
2023-04-01T06:07:13.504Z,6.75
2023-04-01T06:09:45.024Z,8.80
2023-04-01T06:12:43.440Z,7.35
2023-04-01T06:15:22.382Z,5.68
2023-04-01T06:18:30.657Z,5.78
2023-04-01T06:21:09.345Z,5.13
2023-04-01T06:23:52.357Z,5.18
2023-04-01T06:26:31.707Z,6.65
2023-04-01T06:29:22.735Z,6.72
2023-04-01T06:32:19.413Z,4.82
2023-04-01T06:35:05.329Z,3.50
2023-04-01T06:37:57.590Z,3.78
2023-04-01T06:40:54.801Z,3.58
2023-04-01T06:43:34.266Z,2.75
2023-04-01T06:46:09.772Z,2.50
2023-04-01T06:48:53.719Z,2.00
2023-04-01T06:51:31.091Z,1.92
2023-04-01T06:54:07.430Z,2.40
2023-04-01T06:56:41.623Z,1.55
2023-04-01T06:59:18.222Z,2.28
2023-04-01T07:01:52.528Z,2.00
2023-04-01T07:04:26.802Z,1.60
2023-04-01T07:06:58.974Z,1.00
2023-04-01T07:09:34.494Z,1.58
2023-04-01T07:12:08.666Z,1.77
2023-04-01T07:14:42.902Z,1.63
2023-04-01T07:17:18.336Z,1.85
2023-04-01T07:19:53.421Z,1.80
2023-04-01T07:22:31.634Z,2.00
2023-04-01T07:25:05.839Z,2.45
2023-04-01T07:27:36.797Z,1.75
2023-04-01T07:30:17.618Z,2.08
2023-04-01T07:32:52.133Z,1.98
2023-04-01T07:35:31.689Z,1.40
2023-04-01T07:38:19.241Z,1.85
2023-04-01T07:40:56.364Z,1.90
2023-04-01T07:43:43.038Z,2.58
2023-04-01T07:46:26.715Z,1.90
2023-04-01T07:49:01.506Z,2.20
2023-04-01T07:51:40.972Z,2.20
2023-04-01T07:54:17.547Z,2.20
2023-04-01T07:56:52.720Z,2.55
2023-04-01T07:59:29.993Z,1.95
2023-04-01T08:02:10.420Z,1.98
2023-04-01T08:04:54.198Z,1.67
2023-04-01T08:07:28.228Z,2.35
2023-04-01T08:10:06.552Z,2.05
2023-04-01T08:12:45.252Z,2.45
2023-04-01T08:15:23.415Z,2.30
2023-04-01T08:18:06.692Z,2.10
2023-04-01T08:20:42.068Z,2.10
2023-04-01T08:23:17.016Z,2.65
2023-04-01T08:25:53.778Z,3.40
2023-04-01T08:28:28.794Z,2.45
2023-04-01T08:31:06.119Z,2.17
2023-04-01T08:33:37.080Z,2.05
2023-04-01T08:36:10.816Z,2.67
2023-04-01T08:38:46.004Z,3.25
2023-04-01T08:41:39.936Z,3.83
2023-04-01T08:44:45.323Z,2.67
2023-04-01T08:47:34.919Z,3.90
2023-04-01T08:50:30.663Z,2.67
2023-04-01T08:53:08.600Z,2.65
2023-04-01T08:55:45.624Z,2.15
2023-04-01T08:58:51.374Z,1.65
2023-04-01T09:01:50.069Z,2.22
2023-04-01T09:05:00.694Z,2.70
2023-04-01T09:07:43.291Z,1.75
2023-04-01T09:10:42.461Z,2.10
2023-04-01T09:13:40.286Z,1.65
2023-04-01T09:16:26.356Z,2.00
2023-04-01T09:19:14.405Z,2.88
2023-04-01T09:22:10.555Z,1.95
2023-04-01T09:25:11.807Z,1.00
2023-04-01T09:27:47.636Z,1.50
2023-04-01T09:30:36.371Z,1.88
2023-04-01T09:33:42.522Z,1.42
2023-04-01T09:36:22.894Z,1.85
2023-04-01T09:39:00.134Z,1.25
2023-04-01T09:41:35.443Z,1.27
2023-04-01T09:44:06.374Z,1.60
2023-04-01T09:46:49.001Z,1.40
2023-04-01T09:49:47.265Z,1.08
2023-04-01T09:52:28.034Z,1.10
2023-04-01T09:57:55.440Z,1.02
2023-04-01T10:00:43.167Z,1.30
2023-04-01T10:03:53.044Z,1.35
2023-04-01T10:06:54.464Z,1.02
2023-04-01T10:10:11.393Z,0.85
2023-04-01T10:13:05.931Z,1.42
2023-04-01T10:16:22.347Z,0.95
2023-04-01T10:19:14.891Z,0.77
2023-04-01T10:22:02.997Z,0.80
2023-04-01T10:25:03.188Z,2.00
2023-04-01T10:27:50.419Z,0.50
2023-04-01T10:30:58.497Z,0.57
2023-04-01T10:34:01.829Z,0.60
2023-04-01T10:36:54.343Z,1.17
2023-04-01T10:39:53.251Z,1.42
2023-04-01T10:43:09.515Z,1.77
2023-04-01T10:46:15.730Z,0.73
2023-04-01T10:49:18.260Z,0.82
2023-04-01T10:52:34.759Z,1.08
2023-04-01T10:55:40.011Z,0.65
2023-04-01T10:58:41.867Z,0.98
2023-04-01T11:01:41.916Z,1.20
2023-04-01T11:04:45.453Z,1.10
2023-04-01T11:07:38.577Z,1.02
2023-04-01T11:10:49.510Z,2.17
2023-04-01T11:14:07.564Z,1.00
2023-04-01T11:17:11.162Z,0.75
2023-04-01T11:20:20.048Z,0.80
2023-04-01T11:23:05.721Z,0.70
2023-04-01T11:26:00.062Z,1.75
2023-04-01T11:28:53.721Z,1.55
2023-04-01T11:31:38.007Z,1.17
2023-04-01T11:34:24.746Z,1.00
2023-04-01T11:37:06.203Z,0.90
2023-04-01T11:39:44.531Z,1.13
2023-04-01T11:42:25.970Z,1.13
2023-04-01T11:47:50.822Z,1.60
2023-04-01T11:53:30.037Z,0.63
2023-04-01T11:56:11.926Z,1.00
2023-04-01T11:59:01.564Z,0.80
2023-04-01T12:01:45.731Z,0.93
2023-04-01T12:04:45.130Z,0.98
2023-04-01T12:07:26.617Z,0.98
2023-04-01T12:10:08.271Z,1.15
2023-04-01T12:12:54.146Z,1.05
2023-04-01T12:15:39.032Z,1.10
2023-04-01T12:18:19.182Z,1.00
2023-04-01T12:20:54.644Z,0.63
2023-04-01T12:23:53.527Z,1.25
2023-04-01T12:26:36.447Z,1.13
2023-04-01T12:29:46.534Z,1.00
2023-04-01T12:32:26.364Z,1.40
2023-04-01T12:35:16.602Z,1.10
2023-04-01T12:37:55.788Z,1.02
2023-04-01T12:40:42.802Z,1.25
2023-04-01T12:43:34.967Z,0.95
2023-04-01T12:46:11.236Z,0.88
2023-04-01T12:49:01.818Z,1.02
2023-04-01T12:51:54.701Z,0.93
2023-04-01T12:54:52.350Z,1.50
2023-04-01T12:57:46.357Z,0.95
2023-04-01T13:00:34.803Z,1.30
2023-04-01T13:03:30.590Z,1.20
2023-04-01T13:06:29.525Z,0.88
2023-04-01T13:09:18.227Z,0.88
2023-04-01T13:12:06.150Z,0.80
2023-04-01T13:15:13.181Z,0.50
2023-04-01T13:17:49.948Z,0.80
2023-04-01T13:20:31.779Z,0.80
2023-04-01T13:23:15.293Z,0.57
2023-04-01T13:26:07.058Z,0.80
2023-04-01T13:28:46.168Z,1.70
2023-04-01T13:31:36.339Z,1.08
2023-04-01T13:34:20.145Z,1.52
2023-04-01T13:37:02.859Z,1.35
2023-04-01T13:40:04.136Z,1.58
2023-04-01T13:42:40.779Z,1.33
2023-04-01T13:45:18.234Z,1.02
2023-04-01T13:48:29.944Z,1.20
2023-04-01T13:51:30.114Z,0.98
2023-04-01T13:54:25.532Z,1.75
2023-04-01T13:57:19.501Z,1.63
2023-04-01T14:00:18.866Z,1.98
2023-04-01T14:02:57.627Z,2.55
2023-04-01T14:05:47.812Z,2.28
2023-04-01T14:08:29.491Z,2.08
2023-04-01T14:11:10.079Z,1.73
2023-04-01T14:13:49.969Z,1.67
2023-04-01T14:16:48.499Z,2.00
2023-04-01T14:19:31.488Z,1.65
2023-04-01T14:22:15.520Z,2.72
2023-04-01T14:24:55.652Z,1.80
2023-04-01T14:27:44.012Z,2.08
2023-04-01T14:30:40.713Z,2.20
2023-04-01T14:33:25.713Z,2.00
2023-04-01T14:36:16.510Z,2.05
2023-04-01T14:39:02.693Z,2.35
2023-04-01T14:41:46.186Z,2.30
2023-04-01T14:44:38.620Z,2.28
2023-04-01T14:47:39.677Z,2.85
2023-04-01T14:50:14.835Z,2.80
2023-04-01T14:52:49.665Z,2.67
2023-04-01T14:55:34.076Z,2.28
2023-04-01T14:58:12.675Z,2.95
2023-04-01T15:00:57.313Z,2.78
2023-04-01T15:03:32.634Z,3.60
2023-04-01T15:06:23.407Z,3.03
2023-04-01T15:11:51.425Z,2.58
2023-04-01T15:14:43.841Z,3.08
2023-04-01T15:17:32.188Z,3.83
2023-04-01T15:20:21.695Z,4.32
2023-04-01T15:23:08.528Z,4.00
2023-04-01T15:26:11.416Z,5.03
2023-04-01T15:28:50.811Z,5.15
2023-04-01T15:31:26.510Z,5.07
2023-04-01T15:34:07.980Z,5.85
2023-04-01T15:36:46.737Z,5.40
2023-04-01T15:39:21.597Z,4.65
2023-04-01T15:42:07.406Z,4.07
2023-04-01T15:44:53.049Z,5.07
2023-04-01T15:47:42.545Z,4.45
2023-04-01T15:50:49.434Z,3.75
2023-04-01T15:53:40.383Z,4.93
2023-04-01T15:56:41.057Z,3.92
2023-04-01T15:59:26.364Z,5.35
2023-04-01T16:02:10.242Z,4.88
2023-04-01T16:04:51.683Z,5.22
2023-04-01T16:07:42.785Z,4.05
2023-04-01T16:10:40.940Z,4.70
2023-04-01T16:13:30.860Z,4.32
2023-04-01T16:16:10.475Z,4.83
2023-04-01T16:18:56.765Z,6.25
2023-04-01T16:21:38.286Z,5.05
2023-04-01T16:26:47.772Z,4.63
2023-04-01T16:29:28.816Z,4.50
2023-04-01T16:32:07.889Z,4.57
2023-04-01T16:34:44.223Z,6.20
2023-04-01T16:37:18.500Z,5.20
2023-04-01T16:39:55.819Z,4.05
2023-04-01T16:42:37.583Z,4.75
2023-04-01T16:45:22.767Z,4.97
2023-04-01T16:47:56.095Z,5.35
2023-04-01T16:50:30.888Z,4.80
2023-04-01T16:53:12.752Z,4.97
2023-04-01T16:55:52.150Z,3.97
2023-04-01T16:58:27.562Z,3.72
2023-04-01T17:01:05.657Z,4.22
2023-04-01T17:03:40.719Z,4.03
2023-04-01T17:06:32.039Z,4.68
2023-04-01T17:09:33.061Z,4.38
2023-04-01T17:12:10.932Z,4.88
2023-04-01T17:14:49.220Z,4.13
2023-04-01T17:17:31.747Z,4.47
2023-04-01T17:20:21.068Z,4.78
2023-04-01T17:23:00.221Z,4.15
2023-04-01T17:25:52.031Z,4.57
2023-04-01T17:28:35.926Z,4.93
2023-04-01T17:31:15.384Z,6.30
2023-04-01T17:34:12.469Z,4.82
2023-04-01T17:37:02.200Z,4.32
2023-04-01T17:39:58.617Z,5.00
2023-04-01T17:42:43.749Z,5.63
2023-04-01T17:45:24.330Z,5.75
2023-04-01T17:48:08.922Z,5.05
2023-04-01T17:50:54.495Z,4.53
2023-04-01T17:53:36.578Z,4.07
2023-04-01T17:56:17.558Z,4.85
2023-04-01T17:58:49.772Z,5.07
2023-04-01T18:01:34.913Z,3.35
2023-04-01T18:04:20.365Z,4.40
2023-04-01T18:07:07.443Z,5.15
2023-04-01T18:09:47.257Z,4.28
2023-04-01T18:12:29.238Z,3.90
2023-04-01T18:15:18.551Z,4.32
2023-04-01T18:17:59.803Z,4.20
2023-04-01T18:20:40.389Z,4.07
2023-04-01T18:23:21.748Z,4.50
2023-04-01T18:25:56.378Z,4.05
2023-04-01T18:28:37.986Z,3.97
2023-04-01T18:31:11.834Z,4.97
2023-04-01T18:33:50.435Z,4.43
2023-04-01T18:36:26.888Z,4.50
2023-04-01T18:38:59.887Z,4.45
2023-04-01T18:41:37.941Z,4.13
2023-04-01T18:44:21.224Z,4.20
2023-04-01T18:47:01.319Z,3.70
2023-04-01T18:49:36.651Z,4.50
2023-04-01T18:52:17.606Z,5.20
2023-04-01T18:54:51.972Z,3.83
2023-04-01T18:57:23.812Z,3.95
2023-04-01T18:59:59.552Z,3.95
2023-04-01T19:02:35.320Z,4.07
2023-04-01T19:05:11.710Z,4.03
2023-04-01T19:07:50.313Z,5.65
2023-04-01T19:10:29.366Z,3.63
2023-04-01T19:13:12.868Z,3.60
2023-04-01T19:15:51.859Z,3.50
2023-04-01T19:18:58.646Z,3.30
2023-04-01T19:21:32.623Z,3.08
2023-04-01T19:24:38.484Z,3.53
2023-04-01T19:27:21.164Z,4.63
2023-04-01T19:30:19.081Z,3.17
2023-04-01T19:32:59.236Z,3.70
2023-04-01T19:35:43.285Z,3.45
2023-04-01T19:38:22.663Z,3.30
2023-04-01T19:40:57.865Z,2.88
2023-04-01T19:43:46.518Z,4.50
2023-04-01T19:46:27.064Z,3.40
2023-04-01T19:49:12.488Z,2.97
2023-04-01T19:51:50.333Z,3.35
2023-04-01T19:54:31.212Z,2.75
2023-04-01T19:57:15.755Z,4.57
2023-04-01T19:59:52.436Z,3.20
2023-04-01T20:02:47.240Z,2.80
2023-04-01T20:05:48.437Z,2.35
2023-04-01T20:08:26.987Z,2.35
2023-04-01T20:11:07.613Z,2.38
2023-04-01T20:13:48.230Z,4.03
2023-04-01T20:16:18.050Z,3.17
2023-04-01T20:18:56.663Z,2.67
2023-04-01T20:21:38.015Z,4.03
2023-04-01T20:24:19.625Z,2.33
2023-04-01T20:26:53.395Z,2.30
2023-04-01T20:29:39.623Z,3.35
2023-04-01T20:32:25.780Z,2.53
2023-04-01T20:35:24.513Z,2.17
2023-04-01T20:38:00.970Z,2.28
2023-04-01T20:40:38.145Z,2.45
2023-04-01T20:43:52.176Z,2.33
2023-04-01T20:46:23.481Z,3.22
2023-04-01T20:49:26.647Z,2.28
2023-04-01T20:52:00.057Z,2.70
2023-04-01T20:54:43.862Z,3.00
2023-04-01T20:57:19.497Z,3.35
2023-04-01T21:00:17.295Z,2.30
2023-04-01T21:03:02.142Z,2.70
2023-04-01T21:06:01.723Z,3.47
2023-04-01T21:08:45.477Z,3.50
2023-04-01T21:11:21.964Z,3.05
2023-04-01T21:14:07.013Z,3.67
2023-04-01T21:16:51.869Z,3.15
2023-04-01T21:19:42.112Z,3.35
2023-04-01T21:22:39.518Z,3.63
2023-04-01T21:25:29.762Z,3.33
2023-04-01T21:28:14.577Z,3.05
2023-04-01T21:30:59.267Z,5.47
2023-04-01T21:33:41.513Z,3.95
2023-04-01T21:36:31.790Z,3.70
2023-04-01T21:39:21.699Z,3.33
2023-04-01T21:42:15.801Z,4.30
2023-04-01T21:45:05.211Z,5.13
2023-04-01T21:48:09.473Z,3.05
2023-04-01T21:51:17.282Z,3.22
2023-04-01T21:54:24.662Z,3.78
2023-04-01T21:57:31.698Z,3.03
2023-04-01T22:00:17.609Z,3.95
2023-04-01T22:03:27.329Z,3.75
2023-04-01T22:06:18.844Z,2.95
2023-04-01T22:08:58.886Z,3.13
2023-04-01T22:11:37.704Z,2.77
2023-04-01T22:14:15.274Z,3.67
2023-04-01T22:16:53.143Z,2.42
2023-04-01T22:19:27.499Z,3.03
2023-04-01T22:22:04.295Z,3.33
2023-04-01T22:24:43.214Z,2.00
2023-04-01T22:27:24.057Z,3.10
2023-04-01T22:30:06.538Z,2.45
2023-04-01T22:32:44.575Z,2.15
2023-04-01T22:35:26.601Z,2.78
2023-04-01T22:38:02.849Z,2.38
2023-04-01T22:40:40.144Z,2.35
2023-04-01T22:43:13.991Z,2.45
2023-04-01T22:46:02.293Z,2.30
2023-04-01T22:48:40.707Z,2.30
2023-04-01T22:51:18.028Z,3.92
2023-04-01T22:54:03.658Z,2.17
2023-04-01T22:56:38.431Z,3.03
2023-04-01T22:59:16.045Z,3.25
2023-04-01T23:01:50.963Z,2.40
2023-04-01T23:04:26.734Z,2.47
2023-04-01T23:07:00.399Z,3.30
2023-04-01T23:09:32.657Z,2.40
2023-04-01T23:12:05.754Z,2.95
2023-04-01T23:14:49.085Z,3.45
2023-04-01T23:17:40.866Z,2.35
2023-04-01T23:20:24.116Z,4.95
2023-04-01T23:23:05.369Z,3.10
2023-04-01T23:25:46.081Z,3.50
2023-04-01T23:28:39.706Z,3.83
2023-04-01T23:31:35.660Z,3.00
2023-04-01T23:34:07.839Z,2.10
2023-04-01T23:36:43.720Z,3.45
2023-04-01T23:39:24.711Z,2.95
2023-04-01T23:41:57.523Z,2.30
2023-04-01T23:44:29.974Z,2.50
2023-04-01T23:47:01.844Z,1.58
2023-04-01T23:52:11.386Z,1.23
2023-04-01T23:54:45.993Z,1.33
2023-04-01T23:57:18.287Z,1.42
